WetterOnline ( https://www.wetteronline.at )

Wetter aktuell Putgarten

Aktuelles Wetter: Kap Arkona/Rügen (42m)

6-stündlich | Neueste Meldungen
Ortszeit Temperatur Wetter
Mi, 30.11. 7:00 4.6° C bedeckt
Mi, 30.11. 1:00 4.3° C bedeckt
Di, 29.11. 19:00 4.8° C bedeckt
Di, 29.11. 13:00 5.3° C bewölkt
Di, 29.11. 7:00 5.3° C bedeckt
Di, 29.11. 1:00 5.0° C bedeckt
Mo, 28.11. 19:00 5.6° C bewölkt
Mo, 28.11. 13:00 5.9° C bewölkt
Ortszeit Temperatur Wetter
Mi, 30.11. 7:00 4.6° C bedeckt
Mi, 30.11. 6:50 4.6° C bedeckt
Mi, 30.11. 6:40 4.5° C bedeckt
Mi, 30.11. 6:30 4.4° C bedeckt
Mi, 30.11. 6:20 4.4° C bedeckt
Mi, 30.11. 6:10 4.4° C bedeckt
Mi, 30.11. 6:00 4.4° C bedeckt
Mi, 30.11. 5:30 4.5° C bedeckt
Mi, 30.11. 5:00 4.5° C bedeckt
Mi, 30.11. 4:30 4.3° C bedeckt
Mi, 30.11. 4:00 4.3° C bedeckt
Ortszeit Relative Feuchte Sichtweite
Mi, 30.11. 7:00 83% 6 km
Mi, 30.11. 1:00 83% 7 km
Di, 29.11. 19:00 83% 8 km
Di, 29.11. 13:00 79% 12 km
Di, 29.11. 7:00 84% 9 km
Di, 29.11. 1:00 84% 9 km
Mo, 28.11. 19:00 76% 21 km
Mo, 28.11. 13:00 75% 23 km
Ortszeit Relative Feuchte Sichtweite
Mi, 30.11. 7:00 83% 6 km
Mi, 30.11. 6:50 83% -
Mi, 30.11. 6:40 83% -
Mi, 30.11. 6:30 83% 7 km
Mi, 30.11. 6:20 83% -
Mi, 30.11. 6:10 83% -
Mi, 30.11. 6:00 83% 7 km
Mi, 30.11. 5:30 83% 7 km
Mi, 30.11. 5:00 84% 6 km
Mi, 30.11. 4:30 84% 5.0 km
Mi, 30.11. 4:00 83% 6 km
Ortszeit Niederschlagsmenge Niederschlagsart
Mi, 30.11. 7:00 0.0 l/m2 in 12 Std. -
Mi, 30.11. 1:00 0.0 l/m2 in 6 Std. -
Di, 29.11. 19:00 0.0 l/m2 in 12 Std. -
Di, 29.11. 13:00 0.0 l/m2 in 6 Std. -
Di, 29.11. 7:00 0.0 l/m2 in 12 Std. -
Di, 29.11. 1:00 0.0 l/m2 in 6 Std. -
Mo, 28.11. 19:00 0.0 l/m2 in 12 Std. -
Mo, 28.11. 13:00 0.0 l/m2 in 6 Std. -
Ortszeit Niederschlagsmenge Niederschlagsart
Mi, 30.11. 7:00 0.0 l/m2 in 1 Std. -
Mi, 30.11. 6:50 keine Meldung -
Mi, 30.11. 6:40 keine Meldung -
Mi, 30.11. 6:30 0.0 l/m2 in 1 Std. -
Mi, 30.11. 6:20 keine Meldung -
Mi, 30.11. 6:10 keine Meldung -
Mi, 30.11. 6:00 0.0 l/m2 in 1 Std. -
Mi, 30.11. 5:30 0.0 l/m2 in 1 Std. -
Mi, 30.11. 5:00 0.0 l/m2 in 1 Std. -
Mi, 30.11. 4:30 0.0 l/m2 in 1 Std. -
Mi, 30.11. 4:00 0.0 l/m2 in 1 Std. -
Ortszeit Stärke Spitze Richtung
km/h Bft. km/h Grad Sektor
Mi, 30.11. 7:00 14 3 36 100° O
Mi, 30.11. 1:00 13 3 37 100° O
Di, 29.11. 19:00 17 3 37 100° O
Di, 29.11. 13:00 22 4 48 110° O
Di, 29.11. 7:00 39 6 57 120° SO
Di, 29.11. 1:00 43 6 65 120° SO
Mo, 28.11. 19:00 48 6 70 120° SO
Mo, 28.11. 13:00 43 6 58 130° SO
Ortszeit Stärke Spitze Richtung
km/h Bft. km/h Grad Sektor
Mi, 30.11. 7:00 14 3 32 100° O
Mi, 30.11. 6:50 14 3 - 100° O
Mi, 30.11. 6:40 13 3 - 100° O
Mi, 30.11. 6:30 13 3 30 90° O
Mi, 30.11. 6:20 13 3 - 90° O
Mi, 30.11. 6:10 11 2 - 90° O
Mi, 30.11. 6:00 11 2 29 80° O
Mi, 30.11. 5:30 7 2 29 80° O
Mi, 30.11. 5:00 11 2 32 90° O
Mi, 30.11. 4:30 17 3 31 100° O
Mi, 30.11. 4:00 18 3 32 110° O
Ortszeit Untergrenze Bedeckung Gattung
total tief tief mittel hoch
Mi, 30.11. 7:00 390 m 8/8 8/8 - - -
Mi, 30.11. 1:00 420 m 8/8 8/8 - - -
Di, 29.11. 19:00 480 m 8/8 8/8 - - -
Di, 29.11. 13:00 540 m 7/8 7/8 - - -
Di, 29.11. 7:00 390 m 8/8 8/8 - - -
Di, 29.11. 1:00 390 m 8/8 8/8 - - -
Mo, 28.11. 19:00 3600 m 7/8 7/8 - - -
Mo, 28.11. 13:00 3000 m 7/8 7/8 - - -
Ortszeit Bedeckungsgrad in Achtel und Wolkenuntergrenze
Mi, 30.11. 7:00 5(390m) 8(1020m)
Mi, 30.11. 6:50 5(390m) 8(1020m)
Mi, 30.11. 6:40 8
Mi, 30.11. 6:30 3(420m) 8(1140m)
Mi, 30.11. 6:20 3(420m) 8(1140m)
Mi, 30.11. 6:10 8
Mi, 30.11. 6:00 3(420m) 8(1230m)
Mi, 30.11. 5:30 2(450m) 8(1230m)
Mi, 30.11. 5:00 5(420m) 8(1230m)
Mi, 30.11. 4:30 4(390m) 8(1260m)
Mi, 30.11. 4:00 3(420m) 8(1410m)
Ortszeit Luftdruck NN (hPa) Tendenz (hPa in 3 Std.)
Mi, 30.11. 7:00 1026 + 0,7
Mi, 30.11. 1:00 1025 + 0,4
Di, 29.11. 19:00 1024 + 0,9
Di, 29.11. 13:00 1022 + 0,7
Di, 29.11. 7:00 1020 + 1,0
Di, 29.11. 1:00 1019 + 0,3
Mo, 28.11. 19:00 1019 0,0
Mo, 28.11. 13:00 1019 - 0,8
Ortszeit Luftdruck NN (hPa) Tendenz (hPa in 3 Std.)
Mi, 30.11. 7:00 1026 + 0,7
Mi, 30.11. 6:50 1026 keine Meldung
Mi, 30.11. 6:40 1026 keine Meldung
Mi, 30.11. 6:30 1026 + 0,4
Mi, 30.11. 6:20 1026 keine Meldung
Mi, 30.11. 6:10 1026 keine Meldung
Mi, 30.11. 6:00 1026 + 0,4
Mi, 30.11. 5:30 1026 + 0,6
Mi, 30.11. 5:00 1026 + 0,7
Mi, 30.11. 4:30 1026 + 0,2
Mi, 30.11. 4:00 1025 + 0,2
Ortszeit Schneehöhe (cm)
Mi, 30.11. 7:00 0
Mi, 30.11. 1:00 0
Di, 29.11. 19:00 0
Di, 29.11. 13:00 0
Di, 29.11. 7:00 0
Di, 29.11. 1:00 0
Mo, 28.11. 19:00 0
Mo, 28.11. 13:00 0
Ortszeit Schneehöhe (cm)
Mi, 30.11. 7:00 0
Mi, 30.11. 6:50 0
Mi, 30.11. 6:40 0
Mi, 30.11. 6:30 0
Mi, 30.11. 6:20 0
Mi, 30.11. 6:10 0
Mi, 30.11. 6:00 0
Mi, 30.11. 5:30 0
Mi, 30.11. 5:00 0
Mi, 30.11. 4:30 0
Mi, 30.11. 4:00 0
Link zu dieser Seite / Seite empfehlen

Das Wetter in ...